sensor_id;sensor_type;location;lat;lon;timestamp;P1;durP1;ratioP1;P2;durP2;ratioP2
13941;SDS011;7043;51.630;7.254;2023-12-20T00:01:29;37.07;;;24.47;;
13941;SDS011;7043;51.630;7.254;2023-12-20T00:03:55;35.87;;;24.73;;
13941;SDS011;7043;51.630;7.254;2023-12-20T00:06:21;37.43;;;22.67;;
13941;SDS011;7043;51.630;7.254;2023-12-20T00:08:47;35.97;;;24.73;;
13941;SDS011;7043;51.630;7.254;2023-12-20T00:11:13;35.67;;;23.97;;
13941;SDS011;7043;51.630;7.254;2023-12-20T00:13:39;28.07;;;20.43;;
13941;SDS011;7043;51.630;7.254;2023-12-20T00:16:05;30.43;;;21.23;;
13941;SDS011;7043;51.630;7.254;2023-12-20T00:18:31;30.60;;;21.70;;
13941;SDS011;7043;51.630;7.254;2023-12-20T00:20:57;28.07;;;18.27;;
13941;SDS011;7043;51.630;7.254;2023-12-20T00:23:23;28.47;;;19.03;;
13941;SDS011;7043;51.630;7.254;2023-12-20T00:25:49;27.17;;;18.60;;
13941;SDS011;7043;51.630;7.254;2023-12-20T00:28:15;19.13;;;12.43;;
13941;SDS011;7043;51.630;7.254;2023-12-20T00:30:41;23.43;;;15.83;;
13941;SDS011;7043;51.630;7.254;2023-12-20T00:33:08;23.10;;;15.33;;
13941;SDS011;7043;51.630;7.254;2023-12-20T00:35:34;23.23;;;15.13;;
13941;SDS011;7043;51.630;7.254;2023-12-20T00:38:00;22.13;;;14.93;;
13941;SDS011;7043;51.630;7.254;2023-12-20T00:40:26;19.90;;;12.20;;
13941;SDS011;7043;51.630;7.254;2023-12-20T00:42:52;17.43;;;10.27;;
13941;SDS011;7043;51.630;7.254;2023-12-20T00:45:18;18.77;;;11.87;;
13941;SDS011;7043;51.630;7.254;2023-12-20T00:47:44;21.33;;;11.70;;
13941;SDS011;7043;51.630;7.254;2023-12-20T00:50:10;19.37;;;12.57;;
13941;SDS011;7043;51.630;7.254;2023-12-20T00:52:36;17.30;;;11.20;;
13941;SDS011;7043;51.630;7.254;2023-12-20T00:55:02;19.37;;;12.13;;
13941;SDS011;7043;51.630;7.254;2023-12-20T00:57:31;22.13;;;12.00;;
13941;SDS011;7043;51.630;7.254;2023-12-20T00:59:57;15.90;;;11.10;;
13941;SDS011;7043;51.630;7.254;2023-12-20T01:02:23;19.33;;;10.37;;
13941;SDS011;7043;51.630;7.254;2023-12-20T01:04:49;16.30;;;10.27;;
13941;SDS011;7043;51.630;7.254;2023-12-20T01:07:15;17.63;;;9.43;;
13941;SDS011;7043;51.630;7.254;2023-12-20T01:09:41;21.50;;;9.60;;
13941;SDS011;7043;51.630;7.254;2023-12-20T01:12:07;16.03;;;9.27;;
13941;SDS011;7043;51.630;7.254;2023-12-20T01:14:33;14.47;;;8.20;;
13941;SDS011;7043;51.630;7.254;2023-12-20T01:16:59;10.80;;;6.67;;
13941;SDS011;7043;51.630;7.254;2023-12-20T01:19:25;14.17;;;7.10;;
13941;SDS011;7043;51.630;7.254;2023-12-20T01:21:52;16.00;;;8.70;;
13941;SDS011;7043;51.630;7.254;2023-12-20T01:24:18;13.20;;;7.87;;
13941;SDS011;7043;51.630;7.254;2023-12-20T01:26:44;13.43;;;7.97;;
13941;SDS011;7043;51.630;7.254;2023-12-20T01:29:10;14.53;;;7.70;;
13941;SDS011;7043;51.630;7.254;2023-12-20T01:31:38;15.60;;;7.60;;
13941;SDS011;7043;51.630;7.254;2023-12-20T01:34:04;16.83;;;7.03;;
13941;SDS011;7043;51.630;7.254;2023-12-20T01:36:30;13.27;;;7.50;;
13941;SDS011;7043;51.630;7.254;2023-12-20T01:38:56;11.07;;;6.30;;
13941;SDS011;7043;51.630;7.254;2023-12-20T01:41:21;15.40;;;5.43;;
13941;SDS011;7043;51.630;7.254;2023-12-20T01:43:47;11.50;;;6.63;;
13941;SDS011;7043;51.630;7.254;2023-12-20T01:46:14;14.03;;;7.70;;
13941;SDS011;7043;51.630;7.254;2023-12-20T01:48:40;12.80;;;5.80;;
13941;SDS011;7043;51.630;7.254;2023-12-20T01:51:06;15.83;;;7.33;;
13941;SDS011;7043;51.630;7.254;2023-12-20T01:53:32;18.27;;;8.83;;
13941;SDS011;7043;51.630;7.254;2023-12-20T01:55:58;13.13;;;7.57;;
13941;SDS011;7043;51.630;7.254;2023-12-20T01:58:24;16.93;;;8.93;;
13941;SDS011;7043;51.630;7.254;2023-12-20T02:00:51;15.40;;;8.50;;
13941;SDS011;7043;51.630;7.254;2023-12-20T02:03:17;16.63;;;8.47;;
13941;SDS011;7043;51.630;7.254;2023-12-20T02:05:43;15.90;;;8.57;;
13941;SDS011;7043;51.630;7.254;2023-12-20T02:08:10;15.67;;;8.80;;
13941;SDS011;7043;51.630;7.254;2023-12-20T02:10:36;18.23;;;8.53;;
13941;SDS011;7043;51.630;7.254;2023-12-20T02:13:02;14.00;;;7.60;;
13941;SDS011;7043;51.630;7.254;2023-12-20T02:15:29;14.27;;;8.23;;
13941;SDS011;7043;51.630;7.254;2023-12-20T02:17:55;16.60;;;8.67;;
13941;SDS011;7043;51.630;7.254;2023-12-20T02:20:21;15.23;;;7.47;;
13941;SDS011;7043;51.630;7.254;2023-12-20T02:22:47;15.33;;;8.23;;
13941;SDS011;7043;51.630;7.254;2023-12-20T02:25:13;16.07;;;8.03;;
13941;SDS011;7043;51.630;7.254;2023-12-20T02:27:39;15.87;;;7.97;;
13941;SDS011;7043;51.630;7.254;2023-12-20T02:30:05;11.43;;;7.60;;
13941;SDS011;7043;51.630;7.254;2023-12-20T02:32:32;15.70;;;8.30;;
13941;SDS011;7043;51.630;7.254;2023-12-20T02:34:58;18.47;;;7.87;;
13941;SDS011;7043;51.630;7.254;2023-12-20T02:37:24;17.13;;;7.20;;
13941;SDS011;7043;51.630;7.254;2023-12-20T02:39:50;16.23;;;6.87;;
13941;SDS011;7043;51.630;7.254;2023-12-20T02:42:16;16.17;;;7.43;;
13941;SDS011;7043;51.630;7.254;2023-12-20T02:44:42;17.37;;;7.60;;
13941;SDS011;7043;51.630;7.254;2023-12-20T02:47:08;13.97;;;6.83;;
13941;SDS011;7043;51.630;7.254;2023-12-20T02:49:34;14.13;;;6.57;;
13941;SDS011;7043;51.630;7.254;2023-12-20T02:52:00;14.27;;;6.73;;
13941;SDS011;7043;51.630;7.254;2023-12-20T02:54:26;13.00;;;6.27;;
13941;SDS011;7043;51.630;7.254;2023-12-20T02:56:52;13.90;;;5.90;;
13941;SDS011;7043;51.630;7.254;2023-12-20T02:59:18;13.83;;;6.40;;
13941;SDS011;7043;51.630;7.254;2023-12-20T03:01:45;17.77;;;7.63;;
13941;SDS011;7043;51.630;7.254;2023-12-20T03:04:11;14.70;;;6.37;;
13941;SDS011;7043;51.630;7.254;2023-12-20T03:06:37;11.43;;;6.63;;
13941;SDS011;7043;51.630;7.254;2023-12-20T03:09:03;16.03;;;6.23;;
13941;SDS011;7043;51.630;7.254;2023-12-20T03:11:30;19.20;;;7.73;;
13941;SDS011;7043;51.630;7.254;2023-12-20T03:13:56;17.90;;;7.13;;
13941;SDS011;7043;51.630;7.254;2023-12-20T03:16:22;10.47;;;6.17;;
13941;SDS011;7043;51.630;7.254;2023-12-20T03:18:48;14.43;;;7.03;;
13941;SDS011;7043;51.630;7.254;2023-12-20T03:21:14;19.30;;;8.90;;
13941;SDS011;7043;51.630;7.254;2023-12-20T03:23:40;17.47;;;8.40;;
13941;SDS011;7043;51.630;7.254;2023-12-20T03:26:07;15.10;;;9.17;;
13941;SDS011;7043;51.630;7.254;2023-12-20T03:28:33;17.20;;;8.83;;
13941;SDS011;7043;51.630;7.254;2023-12-20T03:30:59;13.97;;;8.10;;
13941;SDS011;7043;51.630;7.254;2023-12-20T03:33:25;16.90;;;9.60;;
13941;SDS011;7043;51.630;7.254;2023-12-20T03:35:51;18.03;;;8.83;;
13941;SDS011;7043;51.630;7.254;2023-12-20T03:38:17;15.60;;;8.90;;
13941;SDS011;7043;51.630;7.254;2023-12-20T03:40:43;17.57;;;9.30;;
13941;SDS011;7043;51.630;7.254;2023-12-20T03:43:09;16.87;;;8.47;;
13941;SDS011;7043;51.630;7.254;2023-12-20T03:45:35;14.70;;;8.27;;
13941;SDS011;7043;51.630;7.254;2023-12-20T03:48:01;18.33;;;9.43;;
13941;SDS011;7043;51.630;7.254;2023-12-20T03:50:27;22.83;;;10.43;;
13941;SDS011;7043;51.630;7.254;2023-12-20T03:52:53;16.17;;;9.50;;
13941;SDS011;7043;51.630;7.254;2023-12-20T03:55:19;16.80;;;9.27;;
13941;SDS011;7043;51.630;7.254;2023-12-20T03:57:45;20.00;;;10.43;;
13941;SDS011;7043;51.630;7.254;2023-12-20T04:00:11;21.87;;;10.13;;
13941;SDS011;7043;51.630;7.254;2023-12-20T04:02:37;18.73;;;9.57;;
13941;SDS011;7043;51.630;7.254;2023-12-20T04:05:03;19.57;;;9.80;;
13941;SDS011;7043;51.630;7.254;2023-12-20T04:07:30;18.00;;;8.80;;
13941;SDS011;7043;51.630;7.254;2023-12-20T04:09:56;15.00;;;8.93;;
13941;SDS011;7043;51.630;7.254;2023-12-20T04:12:22;22.57;;;8.40;;
13941;SDS011;7043;51.630;7.254;2023-12-20T04:14:48;17.50;;;7.90;;
13941;SDS011;7043;51.630;7.254;2023-12-20T04:17:14;15.73;;;7.27;;
13941;SDS011;7043;51.630;7.254;2023-12-20T04:19:41;19.77;;;8.10;;
13941;SDS011;7043;51.630;7.254;2023-12-20T04:22:07;14.53;;;7.60;;
13941;SDS011;7043;51.630;7.254;2023-12-20T04:24:33;17.70;;;8.10;;
13941;SDS011;7043;51.630;7.254;2023-12-20T04:26:59;16.83;;;8.67;;
13941;SDS011;7043;51.630;7.254;2023-12-20T04:29:25;16.00;;;8.23;;
13941;SDS011;7043;51.630;7.254;2023-12-20T04:31:51;16.83;;;8.50;;
13941;SDS011;7043;51.630;7.254;2023-12-20T04:34:17;16.43;;;7.93;;
13941;SDS011;7043;51.630;7.254;2023-12-20T04:36:43;18.37;;;8.53;;
13941;SDS011;7043;51.630;7.254;2023-12-20T04:39:09;20.37;;;8.83;;
13941;SDS011;7043;51.630;7.254;2023-12-20T04:41:35;18.53;;;8.20;;
13941;SDS011;7043;51.630;7.254;2023-12-20T04:44:01;15.10;;;7.30;;
13941;SDS011;7043;51.630;7.254;2023-12-20T04:46:27;17.20;;;7.40;;
13941;SDS011;7043;51.630;7.254;2023-12-20T04:48:53;17.00;;;7.67;;
13941;SDS011;7043;51.630;7.254;2023-12-20T04:51:20;15.40;;;8.50;;
13941;SDS011;7043;51.630;7.254;2023-12-20T04:53:46;14.67;;;7.40;;
13941;SDS011;7043;51.630;7.254;2023-12-20T04:56:12;19.30;;;9.10;;
13941;SDS011;7043;51.630;7.254;2023-12-20T04:58:38;21.63;;;8.70;;
13941;SDS011;7043;51.630;7.254;2023-12-20T05:01:05;16.93;;;8.63;;
13941;SDS011;7043;51.630;7.254;2023-12-20T05:03:32;17.67;;;8.40;;
13941;SDS011;7043;51.630;7.254;2023-12-20T05:05:58;14.47;;;8.03;;
13941;SDS011;7043;51.630;7.254;2023-12-20T05:08:24;14.70;;;7.10;;
13941;SDS011;7043;51.630;7.254;2023-12-20T05:10:50;21.47;;;7.93;;
13941;SDS011;7043;51.630;7.254;2023-12-20T05:13:16;16.20;;;6.53;;
13941;SDS011;7043;51.630;7.254;2023-12-20T05:15:42;9.30;;;5.17;;
13941;SDS011;7043;51.630;7.254;2023-12-20T05:18:08;13.67;;;5.43;;
13941;SDS011;7043;51.630;7.254;2023-12-20T05:20:34;14.27;;;5.93;;
13941;SDS011;7043;51.630;7.254;2023-12-20T05:23:00;15.63;;;5.67;;
13941;SDS011;7043;51.630;7.254;2023-12-20T05:25:26;18.50;;;7.47;;
13941;SDS011;7043;51.630;7.254;2023-12-20T05:27:52;14.40;;;6.10;;
13941;SDS011;7043;51.630;7.254;2023-12-20T05:30:18;14.83;;;5.97;;
13941;SDS011;7043;51.630;7.254;2023-12-20T05:32:44;15.70;;;7.47;;
13941;SDS011;7043;51.630;7.254;2023-12-20T05:35:10;17.03;;;6.57;;
13941;SDS011;7043;51.630;7.254;2023-12-20T05:37:36;10.13;;;5.33;;
13941;SDS011;7043;51.630;7.254;2023-12-20T05:40:02;17.67;;;7.47;;
13941;SDS011;7043;51.630;7.254;2023-12-20T05:42:29;14.23;;;6.43;;
13941;SDS011;7043;51.630;7.254;2023-12-20T05:44:55;19.63;;;7.77;;
13941;SDS011;7043;51.630;7.254;2023-12-20T05:47:21;16.07;;;6.43;;
13941;SDS011;7043;51.630;7.254;2023-12-20T05:49:47;20.63;;;7.00;;
13941;SDS011;7043;51.630;7.254;2023-12-20T05:52:13;17.47;;;6.40;;
13941;SDS011;7043;51.630;7.254;2023-12-20T05:54:39;14.53;;;5.77;;
13941;SDS011;7043;51.630;7.254;2023-12-20T05:57:05;18.00;;;6.83;;
13941;SDS011;7043;51.630;7.254;2023-12-20T05:59:31;15.33;;;6.13;;
13941;SDS011;7043;51.630;7.254;2023-12-20T06:01:57;16.10;;;6.50;;
13941;SDS011;7043;51.630;7.254;2023-12-20T06:04:23;13.80;;;6.30;;
13941;SDS011;7043;51.630;7.254;2023-12-20T06:06:49;18.07;;;6.13;;
13941;SDS011;7043;51.630;7.254;2023-12-20T06:09:15;19.67;;;6.63;;
13941;SDS011;7043;51.630;7.254;2023-12-20T06:11:41;20.70;;;7.33;;
13941;SDS011;7043;51.630;7.254;2023-12-20T06:14:07;16.03;;;7.33;;
13941;SDS011;7043;51.630;7.254;2023-12-20T06:16:33;15.30;;;6.90;;
13941;SDS011;7043;51.630;7.254;2023-12-20T06:18:59;15.90;;;7.33;;
13941;SDS011;7043;51.630;7.254;2023-12-20T06:21:25;19.67;;;7.93;;
13941;SDS011;7043;51.630;7.254;2023-12-20T06:23:51;19.93;;;9.53;;
13941;SDS011;7043;51.630;7.254;2023-12-20T06:26:17;22.43;;;10.50;;
13941;SDS011;7043;51.630;7.254;2023-12-20T06:28:43;21.93;;;10.33;;
13941;SDS011;7043;51.630;7.254;2023-12-20T06:31:10;19.63;;;8.33;;
13941;SDS011;7043;51.630;7.254;2023-12-20T06:33:36;25.17;;;10.03;;
13941;SDS011;7043;51.630;7.254;2023-12-20T06:36:02;23.03;;;10.07;;
13941;SDS011;7043;51.630;7.254;2023-12-20T06:38:29;19.83;;;10.03;;
13941;SDS011;7043;51.630;7.254;2023-12-20T06:40:55;14.73;;;8.77;;
13941;SDS011;7043;51.630;7.254;2023-12-20T06:43:22;22.83;;;10.67;;
13941;SDS011;7043;51.630;7.254;2023-12-20T06:45:48;20.83;;;9.33;;
13941;SDS011;7043;51.630;7.254;2023-12-20T06:48:14;17.83;;;9.63;;
13941;SDS011;7043;51.630;7.254;2023-12-20T06:50:40;20.40;;;10.07;;
13941;SDS011;7043;51.630;7.254;2023-12-20T06:53:06;22.70;;;9.97;;
13941;SDS011;7043;51.630;7.254;2023-12-20T06:55:33;16.30;;;8.47;;
13941;SDS011;7043;51.630;7.254;2023-12-20T06:58:00;23.17;;;10.77;;
13941;SDS011;7043;51.630;7.254;2023-12-20T07:00:26;21.03;;;10.53;;
13941;SDS011;7043;51.630;7.254;2023-12-20T07:02:52;22.60;;;11.43;;
13941;SDS011;7043;51.630;7.254;2023-12-20T07:05:18;22.40;;;10.97;;
13941;SDS011;7043;51.630;7.254;2023-12-20T07:07:45;20.83;;;11.47;;
13941;SDS011;7043;51.630;7.254;2023-12-20T07:10:12;19.80;;;10.57;;
13941;SDS011;7043;51.630;7.254;2023-12-20T07:12:38;21.53;;;11.10;;
13941;SDS011;7043;51.630;7.254;2023-12-20T07:15:04;21.60;;;10.77;;
13941;SDS011;7043;51.630;7.254;2023-12-20T07:17:33;22.87;;;10.33;;
13941;SDS011;7043;51.630;7.254;2023-12-20T07:19:59;20.77;;;11.17;;
13941;SDS011;7043;51.630;7.254;2023-12-20T07:22:32;19.20;;;10.20;;
13941;SDS011;7043;51.630;7.254;2023-12-20T07:24:58;24.00;;;11.63;;
13941;SDS011;7043;51.630;7.254;2023-12-20T07:27:24;20.60;;;10.40;;
13941;SDS011;7043;51.630;7.254;2023-12-20T07:29:50;22.03;;;10.30;;
13941;SDS011;7043;51.630;7.254;2023-12-20T07:32:16;19.77;;;9.73;;
13941;SDS011;7043;51.630;7.254;2023-12-20T07:34:42;20.90;;;10.37;;
13941;SDS011;7043;51.630;7.254;2023-12-20T07:37:08;21.97;;;9.63;;
13941;SDS011;7043;51.630;7.254;2023-12-20T07:39:41;16.57;;;7.37;;
13941;SDS011;7043;51.630;7.254;2023-12-20T07:42:08;16.17;;;8.83;;
13941;SDS011;7043;51.630;7.254;2023-12-20T07:44:34;18.30;;;9.17;;
13941;SDS011;7043;51.630;7.254;2023-12-20T07:47:03;15.13;;;6.73;;
13941;SDS011;7043;51.630;7.254;2023-12-20T07:49:30;22.93;;;9.20;;
13941;SDS011;7043;51.630;7.254;2023-12-20T07:51:56;16.57;;;8.40;;
13941;SDS011;7043;51.630;7.254;2023-12-20T07:54:22;19.57;;;8.57;;
13941;SDS011;7043;51.630;7.254;2023-12-20T07:56:48;17.57;;;7.50;;
13941;SDS011;7043;51.630;7.254;2023-12-20T07:59:15;22.17;;;8.27;;
13941;SDS011;7043;51.630;7.254;2023-12-20T08:01:41;19.97;;;8.87;;
13941;SDS011;7043;51.630;7.254;2023-12-20T08:04:07;18.87;;;7.40;;
13941;SDS011;7043;51.630;7.254;2023-12-20T08:06:33;19.60;;;7.67;;
13941;SDS011;7043;51.630;7.254;2023-12-20T08:08:59;19.40;;;8.10;;
13941;SDS011;7043;51.630;7.254;2023-12-20T08:11:25;18.27;;;7.60;;
13941;SDS011;7043;51.630;7.254;2023-12-20T08:13:51;17.97;;;7.20;;
13941;SDS011;7043;51.630;7.254;2023-12-20T08:16:17;21.60;;;7.60;;
13941;SDS011;7043;51.630;7.254;2023-12-20T08:18:44;16.07;;;6.10;;
13941;SDS011;7043;51.630;7.254;2023-12-20T08:21:10;18.90;;;6.90;;
13941;SDS011;7043;51.630;7.254;2023-12-20T08:23:36;14.90;;;6.60;;
13941;SDS011;7043;51.630;7.254;2023-12-20T08:26:08;16.43;;;6.17;;
13941;SDS011;7043;51.630;7.254;2023-12-20T08:28:34;12.13;;;5.63;;
13941;SDS011;7043;51.630;7.254;2023-12-20T08:31:02;13.23;;;4.97;;
13941;SDS011;7043;51.630;7.254;2023-12-20T08:33:28;17.60;;;6.67;;
13941;SDS011;7043;51.630;7.254;2023-12-20T08:35:54;17.30;;;6.47;;
13941;SDS011;7043;51.630;7.254;2023-12-20T08:38:20;19.57;;;7.43;;
13941;SDS011;7043;51.630;7.254;2023-12-20T08:40:46;13.13;;;5.63;;
13941;SDS011;7043;51.630;7.254;2023-12-20T08:43:13;14.90;;;6.03;;
13941;SDS011;7043;51.630;7.254;2023-12-20T08:45:39;19.63;;;7.30;;
13941;SDS011;7043;51.630;7.254;2023-12-20T08:48:05;14.10;;;6.80;;
13941;SDS011;7043;51.630;7.254;2023-12-20T08:50:32;15.47;;;6.03;;
13941;SDS011;7043;51.630;7.254;2023-12-20T08:52:58;13.30;;;5.63;;
13941;SDS011;7043;51.630;7.254;2023-12-20T08:55:24;17.57;;;6.90;;
13941;SDS011;7043;51.630;7.254;2023-12-20T08:57:51;13.77;;;5.77;;
13941;SDS011;7043;51.630;7.254;2023-12-20T09:00:17;16.67;;;6.43;;
13941;SDS011;7043;51.630;7.254;2023-12-20T09:02:45;19.17;;;6.23;;
13941;SDS011;7043;51.630;7.254;2023-12-20T09:05:11;14.20;;;6.50;;
13941;SDS011;7043;51.630;7.254;2023-12-20T09:07:37;14.10;;;6.60;;
13941;SDS011;7043;51.630;7.254;2023-12-20T09:10:03;19.93;;;6.00;;
13941;SDS011;7043;51.630;7.254;2023-12-20T09:12:29;12.87;;;5.83;;
13941;SDS011;7043;51.630;7.254;2023-12-20T09:14:55;15.97;;;6.23;;
13941;SDS011;7043;51.630;7.254;2023-12-20T09:17:21;15.97;;;5.60;;
13941;SDS011;7043;51.630;7.254;2023-12-20T09:19:48;17.37;;;5.57;;
13941;SDS011;7043;51.630;7.254;2023-12-20T09:22:14;14.07;;;5.70;;
13941;SDS011;7043;51.630;7.254;2023-12-20T09:24:40;16.43;;;5.90;;
13941;SDS011;7043;51.630;7.254;2023-12-20T09:27:06;12.13;;;4.67;;
13941;SDS011;7043;51.630;7.254;2023-12-20T09:29:32;15.37;;;5.63;;
13941;SDS011;7043;51.630;7.254;2023-12-20T09:31:58;16.10;;;5.47;;
13941;SDS011;7043;51.630;7.254;2023-12-20T09:34:24;14.37;;;5.27;;
13941;SDS011;7043;51.630;7.254;2023-12-20T09:36:51;19.83;;;6.83;;
13941;SDS011;7043;51.630;7.254;2023-12-20T09:39:17;14.47;;;5.50;;
13941;SDS011;7043;51.630;7.254;2023-12-20T09:44:25;17.97;;;5.23;;
13941;SDS011;7043;51.630;7.254;2023-12-20T09:46:51;13.63;;;4.87;;
13941;SDS011;7043;51.630;7.254;2023-12-20T09:49:18;16.43;;;5.23;;
13941;SDS011;7043;51.630;7.254;2023-12-20T09:51:46;14.57;;;5.40;;
13941;SDS011;7043;51.630;7.254;2023-12-20T09:54:16;13.03;;;5.20;;
13941;SDS011;7043;51.630;7.254;2023-12-20T09:56:42;16.70;;;5.17;;
13941;SDS011;7043;51.630;7.254;2023-12-20T09:59:08;13.30;;;4.50;;
13941;SDS011;7043;51.630;7.254;2023-12-20T10:01:35;12.07;;;5.20;;
13941;SDS011;7043;51.630;7.254;2023-12-20T10:04:02;14.00;;;5.33;;
13941;SDS011;7043;51.630;7.254;2023-12-20T10:06:33;10.70;;;4.40;;
13941;SDS011;7043;51.630;7.254;2023-12-20T10:08:59;10.00;;;3.93;;
13941;SDS011;7043;51.630;7.254;2023-12-20T10:11:25;11.97;;;4.23;;
13941;SDS011;7043;51.630;7.254;2023-12-20T10:13:53;13.97;;;4.80;;
13941;SDS011;7043;51.630;7.254;2023-12-20T10:16:26;13.60;;;5.20;;
13941;SDS011;7043;51.630;7.254;2023-12-20T10:18:52;14.17;;;5.00;;
13941;SDS011;7043;51.630;7.254;2023-12-20T10:21:18;12.33;;;5.17;;
13941;SDS011;7043;51.630;7.254;2023-12-20T10:23:45;14.23;;;5.47;;
13941;SDS011;7043;51.630;7.254;2023-12-20T10:26:18;17.13;;;4.90;;
13941;SDS011;7043;51.630;7.254;2023-12-20T10:28:46;14.67;;;4.67;;
13941;SDS011;7043;51.630;7.254;2023-12-20T10:31:25;16.03;;;5.17;;
13941;SDS011;7043;51.630;7.254;2023-12-20T10:33:51;13.57;;;5.57;;
13941;SDS011;7043;51.630;7.254;2023-12-20T10:36:17;12.80;;;5.47;;
13941;SDS011;7043;51.630;7.254;2023-12-20T10:38:43;15.93;;;6.63;;
13941;SDS011;7043;51.630;7.254;2023-12-20T10:41:10;17.33;;;6.60;;
13941;SDS011;7043;51.630;7.254;2023-12-20T10:43:37;10.63;;;4.30;;
13941;SDS011;7043;51.630;7.254;2023-12-20T10:46:03;15.73;;;5.47;;
13941;SDS011;7043;51.630;7.254;2023-12-20T10:48:30;14.40;;;5.97;;
13941;SDS011;7043;51.630;7.254;2023-12-20T10:50:57;15.90;;;5.73;;
13941;SDS011;7043;51.630;7.254;2023-12-20T10:53:25;12.47;;;5.50;;
13941;SDS011;7043;51.630;7.254;2023-12-20T10:55:52;15.97;;;5.93;;
13941;SDS011;7043;51.630;7.254;2023-12-20T10:58:18;15.43;;;5.67;;
13941;SDS011;7043;51.630;7.254;2023-12-20T11:00:46;11.77;;;4.83;;
13941;SDS011;7043;51.630;7.254;2023-12-20T11:03:13;10.43;;;4.37;;
13941;SDS011;7043;51.630;7.254;2023-12-20T11:05:44;10.27;;;4.90;;
13941;SDS011;7043;51.630;7.254;2023-12-20T11:08:14;12.67;;;4.23;;
13941;SDS011;7043;51.630;7.254;2023-12-20T11:10:44;14.37;;;5.70;;
13941;SDS011;7043;51.630;7.254;2023-12-20T11:13:20;13.90;;;5.20;;
13941;SDS011;7043;51.630;7.254;2023-12-20T11:15:48;12.27;;;4.93;;
13941;SDS011;7043;51.630;7.254;2023-12-20T11:18:14;12.27;;;5.33;;
13941;SDS011;7043;51.630;7.254;2023-12-20T11:20:41;15.00;;;4.53;;
13941;SDS011;7043;51.630;7.254;2023-12-20T11:23:07;11.07;;;4.73;;
13941;SDS011;7043;51.630;7.254;2023-12-20T11:25:56;14.77;;;5.00;;
13941;SDS011;7043;51.630;7.254;2023-12-20T11:28:21;13.50;;;5.50;;
13941;SDS011;7043;51.630;7.254;2023-12-20T11:30:48;18.27;;;5.63;;
13941;SDS011;7043;51.630;7.254;2023-12-20T11:33:15;12.53;;;5.80;;
13941;SDS011;7043;51.630;7.254;2023-12-20T11:35:41;13.77;;;5.63;;
13941;SDS011;7043;51.630;7.254;2023-12-20T11:38:08;15.07;;;5.67;;
13941;SDS011;7043;51.630;7.254;2023-12-20T11:40:34;15.40;;;6.70;;
13941;SDS011;7043;51.630;7.254;2023-12-20T11:43:01;11.87;;;5.90;;
13941;SDS011;7043;51.630;7.254;2023-12-20T11:45:27;13.47;;;6.10;;
13941;SDS011;7043;51.630;7.254;2023-12-20T11:47:53;12.73;;;6.60;;
13941;SDS011;7043;51.630;7.254;2023-12-20T11:50:20;15.27;;;5.87;;
13941;SDS011;7043;51.630;7.254;2023-12-20T11:52:46;20.30;;;7.50;;
13941;SDS011;7043;51.630;7.254;2023-12-20T11:55:14;18.23;;;7.00;;
13941;SDS011;7043;51.630;7.254;2023-12-20T11:57:40;11.97;;;6.37;;
13941;SDS011;7043;51.630;7.254;2023-12-20T12:00:06;15.07;;;6.27;;
13941;SDS011;7043;51.630;7.254;2023-12-20T12:02:33;13.13;;;6.20;;
13941;SDS011;7043;51.630;7.254;2023-12-20T12:04:59;15.93;;;7.33;;
13941;SDS011;7043;51.630;7.254;2023-12-20T12:07:25;19.40;;;7.37;;
13941;SDS011;7043;51.630;7.254;2023-12-20T12:09:51;12.60;;;7.23;;
13941;SDS011;7043;51.630;7.254;2023-12-20T12:12:17;14.13;;;6.80;;
13941;SDS011;7043;51.630;7.254;2023-12-20T12:14:44;16.67;;;7.27;;
13941;SDS011;7043;51.630;7.254;2023-12-20T12:17:11;18.20;;;8.47;;
13941;SDS011;7043;51.630;7.254;2023-12-20T12:19:37;17.20;;;9.17;;
13941;SDS011;7043;51.630;7.254;2023-12-20T12:22:10;18.17;;;8.90;;
13941;SDS011;7043;51.630;7.254;2023-12-20T12:24:40;16.77;;;8.37;;
13941;SDS011;7043;51.630;7.254;2023-12-20T12:27:07;14.13;;;6.90;;
13941;SDS011;7043;51.630;7.254;2023-12-20T12:29:33;13.97;;;8.10;;
13941;SDS011;7043;51.630;7.254;2023-12-20T12:31:59;14.40;;;8.53;;
13941;SDS011;7043;51.630;7.254;2023-12-20T12:34:28;16.73;;;8.80;;
13941;SDS011;7043;51.630;7.254;2023-12-20T12:36:55;15.03;;;6.90;;
13941;SDS011;7043;51.630;7.254;2023-12-20T12:39:21;16.00;;;8.67;;
13941;SDS011;7043;51.630;7.254;2023-12-20T12:41:50;19.90;;;9.67;;
13941;SDS011;7043;51.630;7.254;2023-12-20T12:44:16;17.73;;;8.40;;
13941;SDS011;7043;51.630;7.254;2023-12-20T12:46:43;16.83;;;8.13;;
13941;SDS011;7043;51.630;7.254;2023-12-20T12:49:09;15.33;;;7.03;;
13941;SDS011;7043;51.630;7.254;2023-12-20T12:51:34;17.10;;;7.47;;
13941;SDS011;7043;51.630;7.254;2023-12-20T12:54:00;17.17;;;8.43;;
13941;SDS011;7043;51.630;7.254;2023-12-20T12:56:27;19.97;;;7.67;;
13941;SDS011;7043;51.630;7.254;2023-12-20T12:58:53;13.07;;;7.53;;
13941;SDS011;7043;51.630;7.254;2023-12-20T13:01:19;13.17;;;6.60;;
13941;SDS011;7043;51.630;7.254;2023-12-20T13:03:45;15.13;;;6.67;;
13941;SDS011;7043;51.630;7.254;2023-12-20T13:06:11;13.67;;;6.73;;
13941;SDS011;7043;51.630;7.254;2023-12-20T13:08:37;12.80;;;5.90;;
13941;SDS011;7043;51.630;7.254;2023-12-20T13:11:03;13.47;;;7.27;;
13941;SDS011;7043;51.630;7.254;2023-12-20T13:13:30;13.47;;;6.17;;
13941;SDS011;7043;51.630;7.254;2023-12-20T13:15:56;11.60;;;6.13;;
13941;SDS011;7043;51.630;7.254;2023-12-20T13:18:22;17.47;;;6.97;;
13941;SDS011;7043;51.630;7.254;2023-12-20T13:20:48;14.37;;;7.00;;
13941;SDS011;7043;51.630;7.254;2023-12-20T13:23:15;14.23;;;6.57;;
13941;SDS011;7043;51.630;7.254;2023-12-20T13:25:43;13.93;;;6.40;;
13941;SDS011;7043;51.630;7.254;2023-12-20T13:28:10;12.20;;;6.13;;
13941;SDS011;7043;51.630;7.254;2023-12-20T13:30:38;11.20;;;5.93;;
13941;SDS011;7043;51.630;7.254;2023-12-20T13:33:04;15.30;;;7.23;;
13941;SDS011;7043;51.630;7.254;2023-12-20T13:35:30;15.67;;;7.30;;
13941;SDS011;7043;51.630;7.254;2023-12-20T13:37:57;15.67;;;8.87;;
13941;SDS011;7043;51.630;7.254;2023-12-20T13:40:23;17.80;;;8.33;;
13941;SDS011;7043;51.630;7.254;2023-12-20T13:42:49;15.30;;;7.37;;
13941;SDS011;7043;51.630;7.254;2023-12-20T13:45:15;12.30;;;7.40;;
13941;SDS011;7043;51.630;7.254;2023-12-20T13:47:41;14.70;;;8.03;;
13941;SDS011;7043;51.630;7.254;2023-12-20T13:50:07;13.17;;;6.83;;
13941;SDS011;7043;51.630;7.254;2023-12-20T13:52:33;14.67;;;7.90;;
13941;SDS011;7043;51.630;7.254;2023-12-20T13:54:59;16.03;;;8.37;;
13941;SDS011;7043;51.630;7.254;2023-12-20T13:57:25;12.70;;;7.50;;
13941;SDS011;7043;51.630;7.254;2023-12-20T13:59:51;8.43;;;5.47;;
13941;SDS011;7043;51.630;7.254;2023-12-20T14:02:17;20.40;;;8.03;;
13941;SDS011;7043;51.630;7.254;2023-12-20T14:04:43;9.77;;;7.00;;
13941;SDS011;7043;51.630;7.254;2023-12-20T14:07:09;13.27;;;8.57;;
13941;SDS011;7043;51.630;7.254;2023-12-20T14:09:39;13.27;;;9.13;;
13941;SDS011;7043;51.630;7.254;2023-12-20T14:12:10;14.80;;;9.77;;
13941;SDS011;7043;51.630;7.254;2023-12-20T14:14:36;18.77;;;10.33;;
13941;SDS011;7043;51.630;7.254;2023-12-20T14:17:02;12.23;;;8.80;;
13941;SDS011;7043;51.630;7.254;2023-12-20T14:19:28;16.67;;;9.43;;
13941;SDS011;7043;51.630;7.254;2023-12-20T14:21:54;16.43;;;9.00;;
13941;SDS011;7043;51.630;7.254;2023-12-20T14:24:20;16.60;;;8.13;;
13941;SDS011;7043;51.630;7.254;2023-12-20T14:26:46;17.83;;;9.27;;
13941;SDS011;7043;51.630;7.254;2023-12-20T14:29:12;14.90;;;10.27;;
13941;SDS011;7043;51.630;7.254;2023-12-20T14:31:38;16.73;;;9.67;;
13941;SDS011;7043;51.630;7.254;2023-12-20T14:34:05;15.97;;;11.73;;
13941;SDS011;7043;51.630;7.254;2023-12-20T14:36:32;18.63;;;11.67;;
13941;SDS011;7043;51.630;7.254;2023-12-20T14:38:58;17.13;;;13.10;;
13941;SDS011;7043;51.630;7.254;2023-12-20T14:41:24;16.60;;;12.43;;
13941;SDS011;7043;51.630;7.254;2023-12-20T14:43:50;18.27;;;12.27;;